createdAt,value
2023-01-18T00:01:24.226Z,25.17
2023-01-18T00:03:53.148Z,24.40
2023-01-18T00:06:21.952Z,25.87
2023-01-18T00:08:50.556Z,25.33
2023-01-18T00:11:19.021Z,25.77
2023-01-18T00:13:48.118Z,24.97
2023-01-18T00:16:19.480Z,28.07
2023-01-18T00:18:52.087Z,26.87
2023-01-18T00:21:21.043Z,26.63
2023-01-18T00:23:49.707Z,27.13
2023-01-18T00:26:18.142Z,26.57
2023-01-18T00:28:47.426Z,26.40
2023-01-18T00:31:18.934Z,26.03
2023-01-18T00:33:49.452Z,28.70
2023-01-18T00:36:18.387Z,25.43
2023-01-18T00:38:52.256Z,27.50
2023-01-18T00:41:21.144Z,26.53
2023-01-18T00:43:49.405Z,24.27
2023-01-18T00:46:20.658Z,28.93
2023-01-18T00:48:49.736Z,26.20
2023-01-18T00:51:21.814Z,27.43
2023-01-18T00:53:50.613Z,28.10
2023-01-18T00:56:21.815Z,28.70
2023-01-18T00:58:50.562Z,27.03
2023-01-18T01:01:20.664Z,27.77
2023-01-18T01:04:06.775Z,27.13
2023-01-18T01:06:45.744Z,29.20
2023-01-18T01:09:18.061Z,26.60
2023-01-18T01:12:00.745Z,26.67
2023-01-18T01:14:47.649Z,27.67
2023-01-18T01:17:35.099Z,27.13
2023-01-18T01:20:21.632Z,23.63
2023-01-18T01:23:07.161Z,26.63
2023-01-18T01:25:55.133Z,24.23
2023-01-18T01:28:23.499Z,24.37
2023-01-18T01:30:52.159Z,24.03
2023-01-18T01:33:21.897Z,25.90
2023-01-18T01:35:51.242Z,23.93
2023-01-18T01:38:19.562Z,24.90
2023-01-18T01:40:57.834Z,23.30
2023-01-18T01:43:40.801Z,24.17
2023-01-18T01:46:34.266Z,22.90
2023-01-18T01:49:09.812Z,24.80
2023-01-18T01:51:42.701Z,23.80
2023-01-18T01:54:14.715Z,24.50
2023-01-18T01:56:45.210Z,23.90
2023-01-18T01:59:13.836Z,23.33
2023-01-18T02:01:43.918Z,23.47
2023-01-18T02:04:14.139Z,22.53
2023-01-18T02:06:42.925Z,23.30
2023-01-18T02:09:14.836Z,23.23
2023-01-18T02:11:44.976Z,24.47
2023-01-18T02:14:16.953Z,20.70
2023-01-18T02:17:01.431Z,20.60
2023-01-18T02:20:02.177Z,22.17
2023-01-18T02:22:54.306Z,22.70
2023-01-18T02:25:50.226Z,21.03
2023-01-18T02:28:24.986Z,21.07
2023-01-18T02:30:59.682Z,20.03
2023-01-18T02:33:34.510Z,20.97
2023-01-18T02:36:05.547Z,20.80
2023-01-18T02:38:41.638Z,21.20
2023-01-18T02:41:15.512Z,19.20
2023-01-18T02:44:04.616Z,18.37
2023-01-18T02:46:38.816Z,18.47
2023-01-18T02:49:10.298Z,19.10
2023-01-18T02:51:39.527Z,20.73
2023-01-18T02:54:10.336Z,20.77
2023-01-18T02:56:41.793Z,17.57
2023-01-18T02:59:16.902Z,19.27
2023-01-18T03:01:49.029Z,18.87
2023-01-18T03:04:29.775Z,18.53
2023-01-18T03:07:02.676Z,18.43
2023-01-18T03:09:32.330Z,18.67
2023-01-18T03:12:10.048Z,18.67
2023-01-18T03:14:46.249Z,16.03
2023-01-18T03:17:21.156Z,18.07
2023-01-18T03:20:09.301Z,15.53
2023-01-18T03:22:57.826Z,15.90
2023-01-18T03:25:30.105Z,16.30
2023-01-18T03:28:18.232Z,16.00
2023-01-18T03:31:07.807Z,16.33
2023-01-18T03:33:46.180Z,16.00
2023-01-18T03:36:21.528Z,16.13
2023-01-18T03:38:54.259Z,16.23
2023-01-18T03:41:26.677Z,15.83
2023-01-18T03:43:59.361Z,17.57
2023-01-18T03:46:32.101Z,17.13
2023-01-18T03:49:01.111Z,16.67
2023-01-18T03:51:47.681Z,18.20
2023-01-18T03:54:24.306Z,18.00
2023-01-18T03:56:57.267Z,18.03
2023-01-18T03:59:27.138Z,17.03
2023-01-18T04:01:57.240Z,16.87
2023-01-18T04:04:25.689Z,17.87
2023-01-18T04:06:54.539Z,17.10
2023-01-18T04:09:22.977Z,17.47
2023-01-18T04:11:51.847Z,17.70
2023-01-18T04:14:20.276Z,16.53
2023-01-18T04:16:48.996Z,18.83
2023-01-18T04:19:18.758Z,16.70
2023-01-18T04:21:47.396Z,17.13
2023-01-18T04:24:17.208Z,17.30
2023-01-18T04:26:46.278Z,17.90
2023-01-18T04:29:14.807Z,17.17
2023-01-18T04:31:43.829Z,17.47
2023-01-18T04:34:12.392Z,17.47
2023-01-18T04:36:42.386Z,16.57
2023-01-18T04:39:14.202Z,17.93
2023-01-18T04:41:42.894Z,16.60
2023-01-18T04:44:11.684Z,16.03
2023-01-18T04:46:40.378Z,16.33
2023-01-18T04:49:13.518Z,17.87
2023-01-18T04:51:44.992Z,15.30
2023-01-18T04:54:15.423Z,16.20
2023-01-18T04:56:44.012Z,15.97
2023-01-18T04:59:15.667Z,16.63
2023-01-18T05:01:44.853Z,15.13
2023-01-18T05:04:13.334Z,14.57
2023-01-18T05:06:44.070Z,16.27
2023-01-18T05:09:13.321Z,15.87
2023-01-18T05:11:43.429Z,15.03
2023-01-18T05:14:11.927Z,16.60
2023-01-18T05:16:41.161Z,13.97
2023-01-18T05:19:09.687Z,15.33
2023-01-18T05:21:38.391Z,15.40
2023-01-18T05:24:08.525Z,14.50
2023-01-18T05:26:37.983Z,14.50
2023-01-18T05:29:06.978Z,15.17
2023-01-18T05:31:35.797Z,15.03
2023-01-18T05:34:04.228Z,14.30
2023-01-18T05:36:32.841Z,14.23
2023-01-18T05:39:01.184Z,13.87
2023-01-18T05:41:31.292Z,13.17
2023-01-18T05:43:59.724Z,12.90
2023-01-18T05:46:28.476Z,13.47
2023-01-18T05:48:58.365Z,12.90
2023-01-18T05:51:27.066Z,12.70
2023-01-18T05:53:55.478Z,13.63
2023-01-18T05:56:25.138Z,12.23
2023-01-18T05:58:54.960Z,12.40
2023-01-18T06:01:23.771Z,11.83
2023-01-18T06:03:52.222Z,11.70
2023-01-18T06:06:21.242Z,11.27
2023-01-18T06:08:49.664Z,12.03
2023-01-18T06:11:18.483Z,11.43
2023-01-18T06:13:46.867Z,10.23
2023-01-18T06:16:17.126Z,12.27
2023-01-18T06:18:45.743Z,10.70
2023-01-18T06:21:15.253Z,12.13
2023-01-18T06:23:43.706Z,12.93
2023-01-18T06:26:12.313Z,13.43
2023-01-18T06:28:40.838Z,12.47
2023-01-18T06:31:11.540Z,12.30
2023-01-18T06:33:41.396Z,16.37
2023-01-18T06:36:10.707Z,12.13
2023-01-18T06:38:39.381Z,12.77
2023-01-18T06:41:09.199Z,11.73
2023-01-18T06:43:37.796Z,11.33
2023-01-18T06:46:08.291Z,12.10
2023-01-18T06:48:36.876Z,12.10
2023-01-18T06:51:08.019Z,11.63
2023-01-18T06:53:37.973Z,12.13
2023-01-18T06:56:10.282Z,12.20
2023-01-18T06:58:39.040Z,11.83
2023-01-18T07:01:08.459Z,11.57
2023-01-18T07:03:36.891Z,13.67
2023-01-18T07:06:07.529Z,12.40
2023-01-18T07:08:36.406Z,12.40
2023-01-18T07:11:06.863Z,12.03
2023-01-18T07:13:35.248Z,12.67
2023-01-18T07:16:04.139Z,11.37
2023-01-18T07:18:32.540Z,12.83
2023-01-18T07:21:02.527Z,12.03
2023-01-18T07:23:32.519Z,9.77
2023-01-18T07:26:04.454Z,10.90
2023-01-18T07:28:34.280Z,10.10
2023-01-18T07:31:03.070Z,10.97
2023-01-18T07:33:32.060Z,16.43
2023-01-18T07:36:01.514Z,9.97
2023-01-18T07:38:30.961Z,8.67
2023-01-18T07:41:05.228Z,10.03
2023-01-18T07:43:34.778Z,9.73
2023-01-18T07:46:04.346Z,11.03
2023-01-18T07:48:33.703Z,9.33
2023-01-18T07:51:04.015Z,10.37
2023-01-18T07:53:34.153Z,10.40
2023-01-18T07:56:06.539Z,10.97
2023-01-18T07:58:36.272Z,10.60
2023-01-18T08:01:06.332Z,11.00
2023-01-18T08:03:34.946Z,11.40
2023-01-18T08:06:05.064Z,11.67
2023-01-18T08:08:33.429Z,11.80
2023-01-18T08:11:04.885Z,12.73
2023-01-18T08:13:34.034Z,11.10
2023-01-18T08:16:05.026Z,12.17
2023-01-18T08:18:33.689Z,15.23
2023-01-18T08:21:02.413Z,12.97
2023-01-18T08:23:31.014Z,14.37
2023-01-18T08:26:04.120Z,14.13
2023-01-18T08:28:32.664Z,12.93
2023-01-18T08:31:10.289Z,13.90
2023-01-18T08:33:45.511Z,13.30
2023-01-18T08:36:16.927Z,13.10
2023-01-18T08:38:49.025Z,12.07
2023-01-18T08:41:20.295Z,13.27
2023-01-18T08:43:50.966Z,11.93
2023-01-18T08:46:20.222Z,13.17
2023-01-18T08:48:51.159Z,11.37
2023-01-18T08:51:20.611Z,12.07
2023-01-18T08:53:51.474Z,12.63
2023-01-18T08:56:22.296Z,11.93
2023-01-18T08:58:52.087Z,11.40
2023-01-18T09:01:23.082Z,12.17
2023-01-18T09:03:54.971Z,12.67
2023-01-18T09:06:23.730Z,11.97
2023-01-18T09:08:52.422Z,12.70
2023-01-18T09:11:22.517Z,12.57
2023-01-18T09:14:00.723Z,12.37
2023-01-18T09:16:30.893Z,11.67
2023-01-18T09:18:59.978Z,10.80
2023-01-18T09:21:29.655Z,12.53
2023-01-18T09:23:59.456Z,12.50
2023-01-18T09:26:30.483Z,11.57
2023-01-18T09:28:59.208Z,12.57
2023-01-18T09:31:28.997Z,12.47
2023-01-18T09:34:06.345Z,11.80
2023-01-18T09:36:45.965Z,12.03
2023-01-18T09:39:14.328Z,11.83
2023-01-18T09:41:46.988Z,12.87
2023-01-18T09:44:21.450Z,12.30
2023-01-18T09:46:54.482Z,12.50
2023-01-18T09:49:29.545Z,12.40
2023-01-18T09:52:13.000Z,12.73
2023-01-18T09:54:47.007Z,11.47
2023-01-18T09:57:37.872Z,12.07
2023-01-18T10:00:19.469Z,12.13
2023-01-18T10:02:51.746Z,12.43
2023-01-18T10:05:24.608Z,11.27
2023-01-18T10:08:03.409Z,12.13
2023-01-18T10:10:37.834Z,11.43
2023-01-18T10:13:34.285Z,11.40
2023-01-18T10:16:03.437Z,11.77
2023-01-18T10:18:32.368Z,11.80
2023-01-18T10:21:05.421Z,13.13
2023-01-18T10:23:41.731Z,11.67
2023-01-18T10:26:16.737Z,11.40
2023-01-18T10:28:53.228Z,10.87
2023-01-18T10:31:39.609Z,12.30
2023-01-18T10:34:17.844Z,12.37
2023-01-18T10:36:49.776Z,12.40
2023-01-18T10:39:32.575Z,12.77
2023-01-18T10:42:06.309Z,13.40
2023-01-18T10:44:36.409Z,12.33
2023-01-18T10:47:04.828Z,12.40
2023-01-18T10:49:40.161Z,11.77
2023-01-18T10:52:27.031Z,12.50
2023-01-18T10:54:58.155Z,12.20
2023-01-18T10:57:30.722Z,10.67
2023-01-18T11:00:01.064Z,12.23
2023-01-18T11:02:34.775Z,13.00
2023-01-18T11:05:17.616Z,12.13
2023-01-18T11:07:46.015Z,11.70
2023-01-18T11:10:26.170Z,11.30
2023-01-18T11:12:54.796Z,11.27
2023-01-18T11:15:33.899Z,10.43
2023-01-18T11:18:09.993Z,9.20
2023-01-18T11:20:44.674Z,9.53
2023-01-18T11:23:21.143Z,10.23
2023-01-18T11:25:56.327Z,9.90
2023-01-18T11:28:27.600Z,10.10
2023-01-18T11:31:01.927Z,12.07
2023-01-18T11:33:31.050Z,11.23
2023-01-18T11:36:01.563Z,11.43
2023-01-18T11:38:33.192Z,11.60
2023-01-18T11:41:08.041Z,12.47
2023-01-18T11:43:39.495Z,14.87
2023-01-18T11:46:24.378Z,13.17
2023-01-18T11:48:56.115Z,13.93
2023-01-18T11:51:32.961Z,13.37
2023-01-18T11:54:09.049Z,14.50
2023-01-18T11:56:42.226Z,14.20
2023-01-18T11:59:15.980Z,14.60
2023-01-18T12:02:00.727Z,13.37
2023-01-18T12:04:39.951Z,15.63
2023-01-18T12:07:24.062Z,17.13
2023-01-18T12:09:55.107Z,17.73
2023-01-18T12:12:46.105Z,17.17
2023-01-18T12:15:38.800Z,17.57
2023-01-18T12:18:30.359Z,16.37
2023-01-18T12:21:05.024Z,16.10
2023-01-18T12:24:01.134Z,16.97
2023-01-18T12:26:42.746Z,19.00
2023-01-18T12:29:37.637Z,17.20
2023-01-18T12:32:18.727Z,17.83
2023-01-18T12:35:12.614Z,16.43
2023-01-18T12:37:58.137Z,15.47
2023-01-18T12:40:37.888Z,17.40
2023-01-18T12:43:22.874Z,18.60
2023-01-18T12:46:02.659Z,18.13
2023-01-18T12:48:35.965Z,18.50
2023-01-18T12:51:12.456Z,16.30
2023-01-18T12:53:46.037Z,16.20
2023-01-18T12:56:19.788Z,15.73
2023-01-18T12:58:57.110Z,16.93
2023-01-18T13:01:30.669Z,17.43
2023-01-18T13:04:05.572Z,19.73
2023-01-18T13:06:37.408Z,17.10
2023-01-18T13:09:11.196Z,18.33
2023-01-18T13:11:43.185Z,18.63
2023-01-18T13:14:20.395Z,16.57
2023-01-18T13:16:58.607Z,17.90
2023-01-18T13:19:34.417Z,18.90
2023-01-18T13:22:11.882Z,17.77
2023-01-18T13:24:54.109Z,17.10
2023-01-18T13:27:22.816Z,17.80
2023-01-18T13:29:51.234Z,18.80
2023-01-18T13:32:35.953Z,20.23
2023-01-18T13:35:20.661Z,18.70
2023-01-18T13:37:56.092Z,19.77
2023-01-18T13:40:36.920Z,18.33
2023-01-18T13:43:06.736Z,17.57
2023-01-18T13:46:02.284Z,17.53
2023-01-18T13:48:45.670Z,15.47
2023-01-18T13:51:49.557Z,19.30
2023-01-18T13:54:35.651Z,17.57
2023-01-18T13:57:18.425Z,18.90
2023-01-18T13:59:50.436Z,17.27
2023-01-18T14:02:24.355Z,18.00
2023-01-18T14:05:09.719Z,16.97
2023-01-18T14:07:43.866Z,16.77
2023-01-18T14:10:34.188Z,17.23
2023-01-18T14:13:04.519Z,16.57
2023-01-18T14:15:50.208Z,18.30
2023-01-18T14:18:23.933Z,16.80
2023-01-18T14:21:12.605Z,16.60
2023-01-18T14:24:07.462Z,17.03
2023-01-18T14:26:39.893Z,17.17
2023-01-18T14:29:14.148Z,16.63
2023-01-18T14:31:47.266Z,16.50
2023-01-18T14:34:26.665Z,16.90
2023-01-18T14:36:55.770Z,17.17
2023-01-18T14:39:24.604Z,16.70
2023-01-18T14:41:57.659Z,17.17
2023-01-18T14:44:28.601Z,15.10
2023-01-18T14:46:59.015Z,18.00
2023-01-18T14:49:30.783Z,17.43
2023-01-18T14:52:00.461Z,15.90
2023-01-18T14:54:29.371Z,17.00
2023-01-18T14:57:08.838Z,16.83
2023-01-18T14:59:37.663Z,17.50
2023-01-18T15:02:17.365Z,16.63
2023-01-18T15:04:47.470Z,16.67
2023-01-18T15:07:20.507Z,16.87
2023-01-18T15:09:50.001Z,15.93
2023-01-18T15:12:24.560Z,16.70
2023-01-18T15:14:55.503Z,18.47
2023-01-18T15:17:26.289Z,18.30
2023-01-18T15:19:59.400Z,18.63
2023-01-18T15:22:32.629Z,18.43
2023-01-18T15:25:02.556Z,17.17
2023-01-18T15:27:33.400Z,16.43
2023-01-18T15:30:02.858Z,17.73
2023-01-18T15:32:33.808Z,22.07
2023-01-18T15:35:04.290Z,22.00
2023-01-18T15:37:37.362Z,22.37
2023-01-18T15:40:24.629Z,20.43
2023-01-18T15:43:03.941Z,20.33
2023-01-18T15:45:34.606Z,21.00
2023-01-18T15:48:08.593Z,21.67
2023-01-18T15:50:39.677Z,20.87
2023-01-18T15:53:11.999Z,21.90
2023-01-18T15:55:46.577Z,20.90
2023-01-18T15:58:26.059Z,20.63
2023-01-18T16:00:56.851Z,21.10
2023-01-18T16:03:27.521Z,20.97
2023-01-18T16:06:05.207Z,23.87
2023-01-18T16:08:33.964Z,24.27
2023-01-18T16:11:02.711Z,20.63
2023-01-18T16:13:34.656Z,19.30
2023-01-18T16:16:22.545Z,17.63
2023-01-18T16:19:00.772Z,21.70
2023-01-18T16:21:40.359Z,19.73
2023-01-18T16:24:33.325Z,23.37
2023-01-18T16:27:11.257Z,18.43
2023-01-18T16:29:47.172Z,20.40
2023-01-18T16:32:28.963Z,21.00
2023-01-18T16:35:00.228Z,22.03
2023-01-18T16:37:29.353Z,19.70
2023-01-18T16:39:58.178Z,19.70
2023-01-18T16:42:37.704Z,22.23
2023-01-18T16:45:14.558Z,23.03
2023-01-18T16:47:43.023Z,21.37
2023-01-18T16:50:15.629Z,21.00
2023-01-18T16:52:44.681Z,24.17
2023-01-18T16:55:13.997Z,22.40
2023-01-18T16:57:43.108Z,23.07
2023-01-18T17:00:18.305Z,22.83
2023-01-18T17:02:46.973Z,21.30
2023-01-18T17:05:17.416Z,21.83
2023-01-18T17:07:46.377Z,22.63
2023-01-18T17:10:23.995Z,23.43
2023-01-18T17:12:52.636Z,21.77
2023-01-18T17:15:23.202Z,21.00
2023-01-18T17:17:51.863Z,22.53
2023-01-18T17:20:22.971Z,21.20
2023-01-18T17:22:52.609Z,23.03
2023-01-18T17:25:22.689Z,23.10
2023-01-18T17:27:51.678Z,23.17
2023-01-18T17:30:23.011Z,22.67
2023-01-18T17:32:52.430Z,24.43
2023-01-18T17:35:22.987Z,23.83
2023-01-18T17:38:00.626Z,22.63
2023-01-18T17:40:41.763Z,22.37
2023-01-18T17:43:15.185Z,23.27
2023-01-18T17:45:59.644Z,22.60
2023-01-18T17:48:30.090Z,23.97
2023-01-18T17:50:59.000Z,22.67
2023-01-18T17:53:27.462Z,22.13
2023-01-18T17:55:56.283Z,24.70
2023-01-18T17:58:24.672Z,22.13
2023-01-18T18:00:55.341Z,21.87
2023-01-18T18:03:23.989Z,20.87
2023-01-18T18:05:58.704Z,21.03
2023-01-18T18:08:27.644Z,22.27
2023-01-18T18:10:56.420Z,22.63
2023-01-18T18:13:24.996Z,21.70
2023-01-18T18:15:55.696Z,22.07
2023-01-18T18:18:24.585Z,24.57
2023-01-18T18:21:00.597Z,23.43
2023-01-18T18:23:30.021Z,24.13
2023-01-18T18:25:59.441Z,25.03
2023-01-18T18:28:29.609Z,24.40
2023-01-18T18:31:00.610Z,25.33
2023-01-18T18:33:30.068Z,24.93
2023-01-18T18:35:59.065Z,24.73
2023-01-18T18:38:27.704Z,24.10
2023-01-18T18:41:03.758Z,25.60
2023-01-18T18:43:32.726Z,24.63
2023-01-18T18:46:02.962Z,23.67
2023-01-18T18:48:31.960Z,24.73
2023-01-18T18:51:00.908Z,25.43
2023-01-18T18:53:37.875Z,24.90
2023-01-18T18:56:09.724Z,25.70
2023-01-18T18:58:38.846Z,26.10
2023-01-18T19:01:18.692Z,25.87
2023-01-18T19:03:47.649Z,26.53
2023-01-18T19:06:16.688Z,26.80
2023-01-18T19:08:45.521Z,27.33
2023-01-18T19:11:15.557Z,27.17
2023-01-18T19:13:44.572Z,27.00
2023-01-18T19:16:15.004Z,26.50
2023-01-18T19:18:43.807Z,24.63
2023-01-18T19:21:12.716Z,25.80
2023-01-18T19:23:41.193Z,25.93
2023-01-18T19:26:10.042Z,24.53
2023-01-18T19:28:38.469Z,25.70
2023-01-18T19:31:08.731Z,26.00
2023-01-18T19:33:39.020Z,29.53
2023-01-18T19:36:09.922Z,27.40
2023-01-18T19:38:46.064Z,27.30
2023-01-18T19:41:17.427Z,25.90
2023-01-18T19:43:49.893Z,26.97
2023-01-18T19:46:20.266Z,29.07
2023-01-18T19:48:50.559Z,28.97
2023-01-18T19:51:22.711Z,28.30
2023-01-18T19:53:53.368Z,29.00
2023-01-18T19:56:22.401Z,25.53
2023-01-18T19:58:50.860Z,24.40
2023-01-18T20:01:35.361Z,27.13
2023-01-18T20:04:07.687Z,24.77
2023-01-18T20:06:38.715Z,25.73
2023-01-18T20:09:18.382Z,24.90
2023-01-18T20:11:48.920Z,24.30
2023-01-18T20:14:18.361Z,28.97
2023-01-18T20:16:47.640Z,26.57
2023-01-18T20:19:19.251Z,25.00
2023-01-18T20:21:48.315Z,25.60
2023-01-18T20:24:17.908Z,24.17
2023-01-18T20:26:46.892Z,26.03
2023-01-18T20:29:15.582Z,26.47
2023-01-18T20:31:49.552Z,25.23
2023-01-18T20:34:20.111Z,23.77
2023-01-18T20:36:50.145Z,25.10
2023-01-18T20:39:19.007Z,24.37
2023-01-18T20:41:49.917Z,23.10
2023-01-18T20:44:18.712Z,24.23
2023-01-18T20:46:48.405Z,23.40
2023-01-18T20:49:20.515Z,23.37
2023-01-18T20:51:52.673Z,23.77
2023-01-18T20:54:21.503Z,22.93
2023-01-18T20:56:50.475Z,23.60
2023-01-18T20:59:20.107Z,22.50
2023-01-18T21:01:49.425Z,23.77
2023-01-18T21:04:18.019Z,22.43
2023-01-18T21:06:47.141Z,22.77
2023-01-18T21:09:17.578Z,24.67
2023-01-18T21:11:46.965Z,24.27
2023-01-18T21:14:16.033Z,23.30
2023-01-18T21:16:45.489Z,25.90
2023-01-18T21:19:14.145Z,24.33
2023-01-18T21:21:43.308Z,24.03
2023-01-18T21:24:12.274Z,24.43
2023-01-18T21:26:42.545Z,23.87
2023-01-18T21:29:11.199Z,23.30
2023-01-18T21:31:41.056Z,23.40
2023-01-18T21:34:10.280Z,23.10
2023-01-18T21:36:39.992Z,21.97
2023-01-18T21:39:11.440Z,23.70
2023-01-18T21:42:03.117Z,24.43
2023-01-18T21:44:50.276Z,24.63
2023-01-18T21:47:19.169Z,23.60
2023-01-18T21:50:16.990Z,22.37
2023-01-18T21:53:04.342Z,25.30
2023-01-18T21:55:32.841Z,23.47
2023-01-18T21:58:19.006Z,24.57
2023-01-18T22:00:48.988Z,24.73
2023-01-18T22:03:18.571Z,24.83
2023-01-18T22:05:47.315Z,23.83
2023-01-18T22:08:15.944Z,24.70
2023-01-18T22:10:47.395Z,24.90
2023-01-18T22:13:16.105Z,24.40
2023-01-18T22:15:44.658Z,22.77
2023-01-18T22:18:14.706Z,20.73
2023-01-18T22:20:43.110Z,22.67
2023-01-18T22:23:11.981Z,20.00
2023-01-18T22:25:40.382Z,22.27
2023-01-18T22:28:09.071Z,22.00
2023-01-18T22:30:37.484Z,21.60
2023-01-18T22:33:06.414Z,20.20
2023-01-18T22:35:36.526Z,19.60
2023-01-18T22:38:05.947Z,23.83
2023-01-18T22:40:34.389Z,29.00
2023-01-18T22:43:03.112Z,20.90
2023-01-18T22:45:31.522Z,21.30
2023-01-18T22:48:00.622Z,19.83
2023-01-18T22:50:29.322Z,19.13
2023-01-18T22:52:59.297Z,20.30
2023-01-18T22:55:27.664Z,19.53
2023-01-18T22:57:56.676Z,17.83
2023-01-18T23:00:27.812Z,18.60
2023-01-18T23:02:56.840Z,19.03
2023-01-18T23:05:25.297Z,19.57
2023-01-18T23:07:53.894Z,18.50
2023-01-18T23:10:23.649Z,20.23
